createdAt,value
2022-12-25T00:00:04.554Z,4.10
2022-12-25T00:02:34.244Z,5.10
2022-12-25T00:05:02.522Z,5.20
2022-12-25T00:07:31.081Z,4.43
2022-12-25T00:09:59.305Z,4.27
2022-12-25T00:12:27.489Z,4.37
2022-12-25T00:14:55.737Z,4.53
2022-12-25T00:17:23.950Z,4.97
2022-12-25T00:19:53.639Z,4.90
2022-12-25T00:22:21.765Z,4.67
2022-12-25T00:24:50.276Z,4.93
2022-12-25T00:27:18.774Z,4.67
2022-12-25T00:29:47.191Z,5.77
2022-12-25T00:32:15.518Z,4.50
2022-12-25T00:34:44.191Z,3.87
2022-12-25T00:37:13.710Z,4.00
2022-12-25T00:39:41.867Z,4.60
2022-12-25T00:42:20.263Z,3.70
2022-12-25T00:44:48.460Z,4.40
2022-12-25T00:47:17.912Z,4.03
2022-12-25T00:49:46.647Z,3.97
2022-12-25T00:52:16.330Z,3.50
2022-12-25T00:54:44.593Z,4.70
2022-12-25T00:57:15.815Z,3.80
2022-12-25T00:59:43.994Z,3.60
2022-12-25T01:02:27.114Z,3.60
2022-12-25T01:04:57.396Z,3.50
2022-12-25T01:07:28.370Z,4.20
2022-12-25T01:10:13.723Z,3.63
2022-12-25T01:12:43.802Z,3.40
2022-12-25T01:15:12.941Z,5.63
2022-12-25T01:17:41.181Z,3.47
2022-12-25T01:20:09.938Z,3.93
2022-12-25T01:22:39.490Z,3.40
2022-12-25T01:25:09.219Z,3.73
2022-12-25T01:27:37.959Z,3.93
2022-12-25T01:30:07.215Z,3.67
2022-12-25T01:32:35.444Z,3.73
2022-12-25T01:35:03.679Z,3.40
2022-12-25T01:37:31.788Z,3.37
2022-12-25T01:40:01.338Z,3.00
2022-12-25T01:42:29.768Z,3.23
2022-12-25T01:45:34.136Z,3.40
2022-12-25T01:48:05.756Z,3.53
2022-12-25T01:50:35.419Z,3.10
2022-12-25T01:53:05.308Z,3.17
2022-12-25T01:55:36.070Z,3.20
2022-12-25T01:58:04.744Z,3.50
2022-12-25T02:00:32.877Z,3.60
2022-12-25T02:03:01.239Z,3.90
2022-12-25T02:05:31.601Z,3.40
2022-12-25T02:08:03.147Z,3.50
2022-12-25T02:10:31.349Z,2.90
2022-12-25T02:13:01.706Z,3.30
2022-12-25T02:15:40.282Z,3.23
2022-12-25T02:18:13.678Z,3.20
2022-12-25T02:20:55.272Z,3.23
2022-12-25T02:23:57.369Z,3.50
2022-12-25T02:26:48.464Z,3.30
2022-12-25T02:29:24.214Z,3.83
2022-12-25T02:31:59.836Z,3.10
2022-12-25T02:34:35.186Z,3.13
2022-12-25T02:37:08.683Z,3.80
2022-12-25T02:39:58.236Z,2.83
2022-12-25T02:42:53.560Z,3.20
2022-12-25T02:45:48.689Z,3.10
2022-12-25T02:48:36.404Z,3.00
2022-12-25T02:51:26.215Z,3.33
2022-12-25T02:54:16.571Z,3.10
2022-12-25T02:57:05.509Z,3.57
2022-12-25T02:59:54.273Z,3.23
2022-12-25T03:02:43.048Z,2.53
2022-12-25T03:05:32.581Z,3.07
2022-12-25T03:08:07.524Z,3.40
2022-12-25T03:10:56.000Z,3.70
2022-12-25T03:13:28.687Z,2.90
2022-12-25T03:16:14.594Z,3.10
2022-12-25T03:18:44.361Z,2.50
2022-12-25T03:21:29.697Z,3.13
2022-12-25T03:24:19.419Z,3.10
2022-12-25T03:26:56.595Z,3.07
2022-12-25T03:29:43.168Z,3.30
2022-12-25T03:32:20.436Z,2.70
2022-12-25T03:35:16.606Z,2.53
2022-12-25T03:38:21.807Z,2.63
2022-12-25T03:41:15.628Z,2.33
2022-12-25T03:44:10.068Z,2.53
2022-12-25T03:47:06.239Z,3.20
2022-12-25T03:50:04.086Z,2.90
2022-12-25T03:52:53.344Z,2.43
2022-12-25T03:55:54.713Z,2.83
2022-12-25T03:58:42.064Z,2.87
2022-12-25T04:01:28.095Z,2.73
2022-12-25T04:04:13.904Z,2.60
2022-12-25T04:06:59.923Z,3.40
2022-12-25T04:09:47.132Z,2.63
2022-12-25T04:12:32.517Z,2.10
2022-12-25T04:15:17.991Z,1.87
2022-12-25T04:18:03.523Z,2.30
2022-12-25T04:20:48.993Z,2.00
2022-12-25T04:23:34.339Z,2.30
2022-12-25T04:26:21.148Z,2.00
2022-12-25T04:29:06.565Z,2.40
2022-12-25T04:31:52.008Z,2.00
2022-12-25T04:34:37.489Z,1.90
2022-12-25T04:37:05.613Z,1.77
2022-12-25T04:39:33.689Z,1.70
2022-12-25T04:42:03.152Z,1.50
2022-12-25T04:44:31.293Z,1.67
2022-12-25T04:46:59.420Z,1.90
2022-12-25T04:49:27.673Z,1.80
2022-12-25T04:51:55.805Z,1.87
2022-12-25T04:54:24.126Z,2.00
2022-12-25T04:56:52.255Z,2.17
2022-12-25T04:59:21.853Z,1.37
2022-12-25T05:01:50.106Z,1.30
2022-12-25T05:04:18.332Z,1.50
2022-12-25T05:06:46.462Z,1.57
2022-12-25T05:09:14.602Z,1.63
2022-12-25T05:11:42.702Z,1.80
2022-12-25T05:14:10.804Z,1.87
2022-12-25T05:16:40.410Z,1.60
2022-12-25T05:19:08.671Z,1.87
2022-12-25T05:21:36.792Z,1.43
2022-12-25T05:24:05.206Z,1.50
2022-12-25T05:26:33.324Z,1.93
2022-12-25T05:29:01.441Z,1.60
2022-12-25T05:31:29.643Z,1.57
2022-12-25T05:33:59.227Z,1.30
2022-12-25T05:36:27.369Z,1.53
2022-12-25T05:38:55.543Z,1.70
2022-12-25T05:41:24.176Z,1.90
2022-12-25T05:43:53.691Z,2.13
2022-12-25T05:46:21.896Z,1.57
2022-12-25T05:48:50.017Z,2.00
2022-12-25T05:51:19.510Z,2.30
2022-12-25T05:53:47.624Z,2.30
2022-12-25T05:56:15.710Z,2.10
2022-12-25T05:58:44.109Z,2.60
2022-12-25T06:01:13.868Z,2.20
2022-12-25T06:03:42.052Z,2.60
2022-12-25T06:06:10.407Z,2.60
2022-12-25T06:08:40.001Z,2.47
2022-12-25T06:11:09.288Z,2.53
2022-12-25T06:13:38.017Z,2.50
2022-12-25T06:16:06.751Z,1.90
2022-12-25T06:18:36.963Z,2.20
2022-12-25T06:21:08.056Z,2.90
2022-12-25T06:23:36.386Z,2.27
2022-12-25T06:26:06.697Z,2.50
2022-12-25T06:28:34.906Z,2.50
2022-12-25T06:31:07.870Z,2.30
2022-12-25T06:33:36.556Z,2.47
2022-12-25T06:36:08.725Z,2.47
2022-12-25T06:38:37.025Z,2.30
2022-12-25T06:41:08.522Z,2.47
2022-12-25T06:43:36.654Z,2.40
2022-12-25T06:46:06.221Z,2.60
2022-12-25T06:48:35.307Z,2.53
2022-12-25T06:51:04.147Z,2.10
2022-12-25T06:53:39.771Z,2.60
2022-12-25T06:56:15.297Z,2.30
2022-12-25T06:58:45.031Z,2.80
2022-12-25T07:01:17.895Z,1.90
2022-12-25T07:03:47.740Z,1.90
2022-12-25T07:06:16.204Z,3.30
2022-12-25T07:08:44.295Z,2.33
2022-12-25T07:11:13.770Z,2.00
2022-12-25T07:13:41.918Z,1.70
2022-12-25T07:16:11.631Z,2.27
2022-12-25T07:18:40.836Z,1.83
2022-12-25T07:21:10.025Z,2.00
2022-12-25T07:23:38.370Z,2.10
2022-12-25T07:26:06.898Z,2.30
2022-12-25T07:28:36.453Z,1.97
2022-12-25T07:31:05.043Z,1.73
2022-12-25T07:33:33.946Z,1.90
2022-12-25T07:36:02.406Z,1.70
2022-12-25T07:38:30.583Z,2.03
2022-12-25T07:40:58.907Z,2.10
2022-12-25T07:43:27.423Z,1.90
2022-12-25T07:45:58.671Z,2.00
2022-12-25T07:48:27.277Z,2.00
2022-12-25T07:51:00.010Z,2.27
2022-12-25T07:53:28.168Z,2.00
2022-12-25T07:56:00.761Z,1.90
2022-12-25T07:58:28.991Z,2.03
2022-12-25T08:01:04.333Z,1.50
2022-12-25T08:03:33.010Z,1.70
2022-12-25T08:06:01.887Z,1.67
2022-12-25T08:08:30.457Z,2.13
2022-12-25T08:10:58.703Z,2.10
2022-12-25T08:13:27.096Z,2.00
2022-12-25T08:16:00.367Z,1.90
2022-12-25T08:18:30.317Z,2.03
2022-12-25T08:21:02.950Z,1.90
2022-12-25T08:23:31.070Z,2.50
2022-12-25T08:26:05.192Z,1.67
2022-12-25T08:28:35.088Z,1.83
2022-12-25T08:31:10.003Z,1.90
2022-12-25T08:33:39.084Z,2.20
2022-12-25T08:36:09.448Z,1.83
2022-12-25T08:38:37.790Z,1.70
2022-12-25T08:41:06.192Z,2.13
2022-12-25T08:43:34.541Z,2.07
2022-12-25T08:46:02.848Z,2.43
2022-12-25T08:48:32.676Z,2.10
2022-12-25T08:51:01.686Z,2.30
2022-12-25T08:53:29.799Z,2.50
2022-12-25T08:56:01.791Z,3.33
2022-12-25T08:58:30.022Z,4.80
2022-12-25T09:00:58.230Z,3.57
2022-12-25T09:03:26.473Z,3.40
2022-12-25T09:05:56.362Z,3.00
2022-12-25T09:08:24.511Z,2.97
2022-12-25T09:10:52.602Z,2.80
2022-12-25T09:13:20.705Z,2.93
2022-12-25T09:15:49.184Z,3.50
2022-12-25T09:18:17.316Z,2.97
2022-12-25T09:20:45.426Z,3.43
2022-12-25T09:23:14.913Z,3.57
2022-12-25T09:25:43.053Z,4.20
2022-12-25T09:28:11.158Z,3.80
2022-12-25T09:30:39.362Z,4.30
2022-12-25T09:33:08.343Z,4.00
2022-12-25T09:35:36.665Z,4.30
2022-12-25T09:38:04.853Z,3.73
2022-12-25T09:40:34.461Z,4.63
2022-12-25T09:43:03.934Z,4.40
2022-12-25T09:45:37.424Z,4.47
2022-12-25T09:48:06.284Z,4.40
2022-12-25T09:50:42.973Z,3.83
2022-12-25T09:53:16.824Z,3.83
2022-12-25T09:55:53.107Z,4.00
2022-12-25T09:58:21.237Z,3.80
2022-12-25T10:00:55.733Z,3.97
2022-12-25T10:03:47.715Z,3.80
2022-12-25T10:06:21.899Z,4.10
2022-12-25T10:09:22.539Z,3.97
2022-12-25T10:12:16.122Z,4.40
2022-12-25T10:15:05.707Z,4.60
2022-12-25T10:17:45.122Z,4.40
2022-12-25T10:20:22.520Z,4.37
2022-12-25T10:22:54.810Z,3.93
2022-12-25T10:25:25.832Z,4.00
2022-12-25T10:27:59.442Z,4.03
2022-12-25T10:30:29.377Z,4.50
2022-12-25T10:32:59.203Z,3.90
2022-12-25T10:35:30.027Z,3.80
2022-12-25T10:38:01.405Z,4.17
2022-12-25T10:40:35.947Z,3.50
2022-12-25T10:43:12.550Z,3.80
2022-12-25T10:45:45.539Z,2.87
2022-12-25T10:48:21.333Z,3.30
2022-12-25T10:50:50.063Z,2.73
2022-12-25T10:53:23.803Z,2.80
2022-12-25T10:55:56.463Z,3.40
2022-12-25T10:58:25.993Z,2.90
2022-12-25T11:00:56.234Z,3.80
2022-12-25T11:03:27.350Z,4.17
2022-12-25T11:05:55.642Z,4.20
2022-12-25T11:08:25.601Z,4.07
2022-12-25T11:10:57.020Z,4.60
2022-12-25T11:13:28.956Z,3.97
2022-12-25T11:16:06.211Z,4.50
2022-12-25T11:18:36.544Z,4.10
2022-12-25T11:21:16.769Z,3.23
2022-12-25T11:23:46.533Z,4.43
2022-12-25T11:26:14.689Z,4.10
2022-12-25T11:28:46.713Z,4.53
2022-12-25T11:31:19.216Z,4.30
2022-12-25T11:33:54.591Z,4.63
2022-12-25T11:36:30.943Z,4.53
2022-12-25T11:39:02.430Z,4.43
2022-12-25T11:41:35.358Z,4.70
2022-12-25T11:44:20.056Z,5.20
2022-12-25T11:46:52.277Z,5.00
2022-12-25T11:49:22.090Z,4.80
2022-12-25T11:51:54.816Z,5.63
2022-12-25T11:54:28.900Z,6.30
2022-12-25T11:57:00.189Z,5.37
2022-12-25T11:59:35.928Z,5.47
2022-12-25T12:02:19.518Z,5.13
2022-12-25T12:04:50.909Z,5.60
2022-12-25T12:07:26.135Z,5.87
2022-12-25T12:10:03.935Z,5.43
2022-12-25T12:12:48.335Z,5.53
2022-12-25T12:15:28.223Z,6.10
2022-12-25T12:17:56.693Z,5.90
2022-12-25T12:20:29.784Z,5.37
2022-12-25T12:22:58.863Z,5.47
2022-12-25T12:25:27.903Z,4.87
2022-12-25T12:28:04.484Z,5.40
2022-12-25T12:30:36.300Z,5.00
2022-12-25T12:33:07.219Z,5.80
2022-12-25T12:35:38.121Z,5.40
2022-12-25T12:38:12.281Z,5.63
2022-12-25T12:40:43.843Z,5.80
2022-12-25T12:43:31.492Z,5.63
2022-12-25T12:46:06.431Z,7.23
2022-12-25T12:48:41.590Z,5.70
2022-12-25T12:51:12.663Z,5.30
2022-12-25T12:53:41.742Z,4.80
2022-12-25T12:56:15.832Z,4.57
2022-12-25T12:58:48.619Z,4.33
2022-12-25T13:01:46.379Z,4.20
2022-12-25T13:04:35.048Z,4.40
2022-12-25T13:07:14.109Z,3.63
2022-12-25T13:10:01.286Z,3.93
2022-12-25T13:12:29.495Z,3.67
2022-12-25T13:14:57.805Z,3.77
2022-12-25T13:17:28.425Z,3.60
2022-12-25T13:19:58.043Z,3.80
2022-12-25T13:22:31.637Z,3.57
2022-12-25T13:25:01.475Z,3.87
2022-12-25T13:27:31.361Z,3.90
2022-12-25T13:30:00.771Z,3.50
2022-12-25T13:32:33.357Z,4.20
2022-12-25T13:35:01.979Z,4.20
2022-12-25T13:37:32.358Z,4.00
2022-12-25T13:40:04.409Z,3.50
2022-12-25T13:42:33.180Z,3.40
2022-12-25T13:45:06.079Z,3.30
2022-12-25T13:47:37.600Z,3.47
2022-12-25T13:50:17.484Z,3.63
2022-12-25T13:52:47.684Z,2.97
2022-12-25T13:55:19.025Z,3.13
2022-12-25T13:57:51.534Z,3.43
2022-12-25T14:00:22.021Z,3.23
2022-12-25T14:02:52.618Z,3.53
2022-12-25T14:05:26.730Z,3.17
2022-12-25T14:07:55.686Z,3.30
2022-12-25T14:10:25.445Z,3.00
2022-12-25T14:12:57.076Z,3.03
2022-12-25T14:15:25.520Z,4.50
2022-12-25T14:17:55.159Z,3.37
2022-12-25T14:20:25.492Z,3.90
2022-12-25T14:22:55.607Z,2.90
2022-12-25T14:25:27.934Z,2.97
2022-12-25T14:27:56.108Z,3.10
2022-12-25T14:30:25.608Z,2.37
2022-12-25T14:32:56.015Z,2.83
2022-12-25T14:35:25.138Z,3.40
2022-12-25T14:37:59.996Z,3.30
2022-12-25T14:40:31.522Z,3.70
2022-12-25T14:43:01.356Z,3.40
2022-12-25T14:45:32.194Z,3.40
2022-12-25T14:48:04.329Z,3.50
2022-12-25T14:50:36.493Z,3.23
2022-12-25T14:53:04.826Z,3.00
2022-12-25T14:55:33.179Z,3.63
2022-12-25T14:58:04.487Z,3.33
2022-12-25T15:00:35.736Z,3.97
2022-12-25T15:03:08.028Z,3.87
2022-12-25T15:05:38.247Z,5.17
2022-12-25T15:08:22.880Z,5.30
2022-12-25T15:11:01.686Z,6.10
2022-12-25T15:13:32.046Z,6.20
2022-12-25T15:16:04.642Z,6.83
2022-12-25T15:18:38.320Z,7.27
2022-12-25T15:21:07.034Z,6.93
2022-12-25T15:23:35.213Z,5.83
2022-12-25T15:26:03.325Z,6.70
2022-12-25T15:28:31.375Z,5.83
2022-12-25T15:30:59.570Z,5.67
2022-12-25T15:33:27.669Z,4.90
2022-12-25T15:35:57.102Z,4.03
2022-12-25T15:38:25.214Z,4.40
2022-12-25T15:40:53.498Z,4.27
2022-12-25T15:43:40.079Z,3.13
2022-12-25T15:46:10.388Z,2.73
2022-12-25T15:48:38.591Z,3.00
2022-12-25T15:51:08.113Z,2.43
2022-12-25T15:53:36.205Z,3.17
2022-12-25T15:56:04.385Z,2.57
2022-12-25T15:58:32.478Z,2.63
2022-12-25T16:01:00.561Z,2.63
2022-12-25T16:03:28.688Z,2.30
2022-12-25T16:05:56.801Z,2.37
2022-12-25T16:08:26.301Z,2.60
2022-12-25T16:10:54.884Z,2.43
2022-12-25T16:13:23.202Z,2.70
2022-12-25T16:15:51.394Z,2.23
2022-12-25T16:18:19.540Z,2.40
2022-12-25T16:20:47.682Z,2.47
2022-12-25T16:23:15.756Z,2.20
2022-12-25T16:25:45.224Z,2.43
2022-12-25T16:28:13.595Z,2.60
2022-12-25T16:30:42.415Z,2.20
2022-12-25T16:33:12.349Z,3.00
2022-12-25T16:35:40.527Z,2.60
2022-12-25T16:38:08.653Z,2.67
2022-12-25T16:40:36.788Z,3.10
2022-12-25T16:43:06.272Z,2.70
2022-12-25T16:45:38.943Z,2.63
2022-12-25T16:48:08.237Z,2.20
2022-12-25T16:50:39.215Z,3.00
2022-12-25T16:53:07.431Z,3.40
2022-12-25T16:55:36.803Z,3.40
2022-12-25T16:58:07.078Z,3.30
2022-12-25T17:00:35.227Z,3.20
2022-12-25T17:03:03.612Z,3.37
2022-12-25T17:05:33.593Z,3.17
2022-12-25T17:08:01.931Z,3.63
2022-12-25T17:10:30.025Z,3.77
2022-12-25T17:12:58.131Z,3.53
2022-12-25T17:15:28.727Z,2.80
2022-12-25T17:17:57.061Z,3.50
2022-12-25T17:20:25.195Z,4.73
2022-12-25T17:22:53.273Z,3.80
2022-12-25T17:25:21.439Z,5.23
2022-12-25T17:27:50.515Z,3.30
2022-12-25T17:30:18.778Z,3.20
2022-12-25T17:32:48.222Z,3.17
2022-12-25T17:35:17.823Z,3.67
2022-12-25T17:37:45.912Z,3.90
2022-12-25T17:40:15.438Z,5.10
2022-12-25T17:42:43.500Z,3.07
2022-12-25T17:45:12.738Z,3.80
2022-12-25T17:47:40.849Z,3.27
2022-12-25T17:50:10.686Z,4.80
2022-12-25T17:52:38.749Z,7.87
2022-12-25T17:55:08.477Z,7.77
2022-12-25T17:57:36.681Z,9.70
2022-12-25T18:00:06.042Z,6.67
2022-12-25T18:02:35.577Z,4.03
2022-12-25T18:05:03.820Z,3.80
2022-12-25T18:07:33.848Z,4.50
2022-12-25T18:10:01.995Z,4.23
2022-12-25T18:12:30.355Z,3.90
2022-12-25T18:14:58.489Z,4.50
2022-12-25T18:17:26.740Z,4.17
2022-12-25T18:19:54.948Z,4.20
2022-12-25T18:22:23.199Z,5.60
2022-12-25T18:24:52.677Z,3.87
2022-12-25T18:27:20.788Z,4.80
2022-12-25T18:29:48.980Z,4.53
2022-12-25T18:32:17.543Z,4.43
2022-12-25T18:34:45.731Z,6.77
2022-12-25T18:37:13.882Z,4.93
2022-12-25T18:39:41.932Z,4.50
2022-12-25T18:42:25.642Z,6.47
2022-12-25T18:44:54.530Z,4.30
2022-12-25T18:47:22.724Z,4.23
2022-12-25T18:49:50.832Z,9.10
2022-12-25T18:52:47.536Z,6.20
2022-12-25T18:55:07.688Z,4.13
2022-12-25T18:57:37.159Z,6.30
2022-12-25T19:00:06.281Z,5.60
2022-12-25T19:02:34.550Z,16.80
2022-12-25T19:05:02.773Z,5.83
2022-12-25T19:07:30.912Z,16.13
2022-12-25T19:09:59.046Z,9.27
2022-12-25T19:12:27.209Z,9.30
2022-12-25T19:14:56.821Z,7.50
2022-12-25T19:17:31.383Z,5.60
2022-12-25T19:20:00.145Z,5.47
2022-12-25T19:22:29.306Z,7.27
2022-12-25T19:24:57.670Z,7.70
2022-12-25T19:27:26.097Z,8.00
2022-12-25T19:29:54.182Z,5.10
2022-12-25T19:32:23.629Z,6.97
2022-12-25T19:34:51.818Z,7.00
2022-12-25T19:37:19.986Z,7.07
2022-12-25T19:39:48.453Z,6.53
2022-12-25T19:42:18.865Z,6.77
2022-12-25T19:44:47.170Z,7.20
2022-12-25T19:47:15.318Z,5.77
2022-12-25T19:49:47.360Z,6.07
2022-12-25T19:52:17.831Z,6.97
2022-12-25T19:54:45.918Z,6.40
2022-12-25T19:57:14.030Z,6.13
2022-12-25T19:59:42.315Z,7.17
2022-12-25T20:02:11.281Z,6.40
2022-12-25T20:04:39.541Z,6.10
2022-12-25T20:07:09.054Z,6.10
2022-12-25T20:09:37.188Z,5.70
2022-12-25T20:12:05.780Z,6.50
2022-12-25T20:14:33.891Z,7.20
2022-12-25T20:17:02.043Z,6.50
2022-12-25T20:19:30.239Z,5.80
2022-12-25T20:21:58.744Z,6.53
2022-12-25T20:24:28.249Z,6.20
2022-12-25T20:26:59.232Z,4.70
2022-12-25T20:29:27.755Z,5.20
2022-12-25T20:31:55.969Z,6.07
2022-12-25T20:34:24.269Z,5.03
2022-12-25T20:36:52.375Z,5.53
2022-12-25T20:39:20.485Z,7.07
2022-12-25T20:41:49.941Z,5.53
2022-12-25T20:44:18.088Z,6.87
2022-12-25T20:46:46.267Z,7.20
2022-12-25T20:49:14.440Z,4.90
2022-12-25T20:51:42.530Z,6.10
2022-12-25T20:54:12.750Z,5.07
2022-12-25T20:56:41.307Z,6.50
2022-12-25T20:59:14.573Z,6.70
2022-12-25T21:01:42.781Z,5.80
2022-12-25T21:04:16.026Z,6.60
2022-12-25T21:06:44.761Z,5.43
2022-12-25T21:09:12.956Z,5.47
2022-12-25T21:11:41.505Z,4.80
2022-12-25T21:14:12.393Z,5.80
2022-12-25T21:16:40.560Z,5.10
2022-12-25T21:19:08.740Z,5.93
2022-12-25T21:21:39.133Z,4.50
2022-12-25T21:24:07.607Z,4.90
2022-12-25T21:26:35.913Z,4.60
2022-12-25T21:29:04.991Z,4.30
2022-12-25T21:31:56.187Z,4.67
2022-12-25T21:34:23.593Z,5.47
2022-12-25T21:36:51.661Z,5.23
2022-12-25T21:39:19.781Z,5.53
2022-12-25T21:41:47.876Z,4.93
2022-12-25T21:44:16.041Z,4.60
2022-12-25T21:46:45.486Z,4.10
2022-12-25T21:49:33.625Z,4.60
2022-12-25T21:52:09.377Z,4.87
2022-12-25T21:54:37.816Z,4.80
2022-12-25T21:57:06.134Z,4.63
2022-12-25T21:59:34.279Z,3.77
2022-12-25T22:02:11.207Z,4.20
2022-12-25T22:04:39.968Z,4.60
2022-12-25T22:07:19.106Z,4.80
2022-12-25T22:09:48.314Z,3.93
2022-12-25T22:12:34.323Z,3.67
2022-12-25T22:15:06.477Z,3.83
2022-12-25T22:17:55.509Z,3.70
2022-12-25T22:20:26.290Z,3.90
2022-12-25T22:22:54.716Z,3.80
2022-12-25T22:25:23.367Z,3.50
2022-12-25T22:27:52.043Z,4.27
2022-12-25T22:30:21.976Z,4.30
2022-12-25T22:32:52.242Z,3.20
2022-12-25T22:35:21.181Z,3.80
2022-12-25T22:37:49.670Z,3.40
2022-12-25T22:40:20.042Z,4.20
2022-12-25T22:42:48.368Z,4.30
2022-12-25T22:45:16.603Z,3.87
2022-12-25T22:47:44.669Z,3.70
2022-12-25T22:50:15.584Z,3.97
2022-12-25T22:52:45.667Z,4.47
2022-12-25T22:55:18.226Z,4.67
2022-12-25T22:57:46.352Z,4.23
2022-12-25T23:00:15.161Z,3.40
2022-12-25T23:02:43.370Z,3.60
2022-12-25T23:05:13.033Z,3.40
2022-12-25T23:07:41.773Z,3.80
2022-12-25T23:10:11.172Z,3.33
2022-12-25T23:12:56.740Z,3.37
2022-12-25T23:15:24.797Z,3.97
2022-12-25T23:18:10.756Z,3.43
2022-12-25T23:20:57.557Z,2.97
2022-12-25T23:23:43.095Z,4.10
2022-12-25T23:26:12.102Z,3.20
2022-12-25T23:29:00.272Z,3.27
2022-12-25T23:31:33.436Z,3.30
2022-12-25T23:34:02.078Z,3.17
2022-12-25T23:36:31.885Z,3.53
2022-12-25T23:39:06.686Z,3.47
2022-12-25T23:41:37.006Z,3.37
2022-12-25T23:44:05.183Z,3.23
2022-12-25T23:46:33.439Z,2.90
2022-12-25T23:49:01.585Z,3.57
2022-12-25T23:51:31.159Z,3.30
2022-12-25T23:53:59.235Z,3.10
2022-12-25T23:56:27.377Z,3.27
2022-12-25T23:58:55.463Z,3.27
